createdAt,value
2023-05-21T00:00:44.914Z,12.07
2023-05-21T00:03:14.580Z,12.23
2023-05-21T00:05:42.069Z,13.02
2023-05-21T00:08:09.444Z,11.23
2023-05-21T00:10:36.845Z,12.80
2023-05-21T00:13:04.172Z,13.68
2023-05-21T00:15:31.458Z,15.73
2023-05-21T00:17:58.801Z,14.70
2023-05-21T00:20:26.171Z,13.57
2023-05-21T00:22:53.562Z,14.43
2023-05-21T00:25:20.984Z,13.63
2023-05-21T00:27:49.303Z,14.18
2023-05-21T00:30:17.009Z,14.82
2023-05-21T00:32:44.496Z,18.75
2023-05-21T00:35:12.052Z,16.23
2023-05-21T00:37:39.323Z,14.77
2023-05-21T00:40:08.998Z,15.27
2023-05-21T00:42:39.343Z,15.25
2023-05-21T00:45:07.849Z,13.43
2023-05-21T00:47:35.908Z,14.27
2023-05-21T00:50:04.208Z,19.88
2023-05-21T00:52:31.485Z,17.10
2023-05-21T00:54:58.847Z,18.58
2023-05-21T00:57:27.219Z,17.17
2023-05-21T00:59:54.687Z,21.05
2023-05-21T01:02:24.472Z,16.55
2023-05-21T01:04:54.759Z,17.40
2023-05-21T01:07:22.059Z,17.13
2023-05-21T01:09:49.620Z,22.65
2023-05-21T01:12:18.059Z,15.68
2023-05-21T01:14:45.902Z,16.08
2023-05-21T01:17:13.845Z,18.13
2023-05-21T01:19:42.686Z,19.05
2023-05-21T01:22:10.882Z,21.50
2023-05-21T01:24:38.318Z,18.85
2023-05-21T01:27:07.714Z,20.52
2023-05-21T01:29:35.137Z,18.38
2023-05-21T01:32:09.872Z,19.55
2023-05-21T01:34:43.301Z,18.05
2023-05-21T01:37:24.376Z,20.27
2023-05-21T01:40:04.001Z,20.10
2023-05-21T01:42:32.284Z,20.77
2023-05-21T01:45:00.298Z,20.15
2023-05-21T01:47:29.476Z,21.67
2023-05-21T01:49:57.083Z,18.92
2023-05-21T01:52:24.599Z,16.58
2023-05-21T01:54:54.335Z,20.90
2023-05-21T01:57:21.726Z,18.17
2023-05-21T01:59:49.070Z,20.73
2023-05-21T02:02:16.632Z,15.75
2023-05-21T02:04:44.315Z,21.23
2023-05-21T02:07:14.582Z,17.90
2023-05-21T02:09:41.974Z,17.95
2023-05-21T02:12:09.310Z,18.85
2023-05-21T02:14:38.355Z,18.70
2023-05-21T02:17:05.772Z,18.58
2023-05-21T02:19:33.072Z,18.90
2023-05-21T02:22:00.513Z,20.10
2023-05-21T02:24:27.780Z,16.40
2023-05-21T02:26:55.022Z,18.05
2023-05-21T02:29:22.368Z,19.23
2023-05-21T02:31:50.985Z,16.95
2023-05-21T02:34:20.776Z,19.48
2023-05-21T02:36:54.713Z,17.98
2023-05-21T02:39:22.396Z,25.55
2023-05-21T02:41:49.679Z,21.73
2023-05-21T02:44:19.034Z,17.30
2023-05-21T02:46:46.408Z,20.77
2023-05-21T02:49:13.821Z,20.73
2023-05-21T02:51:42.473Z,21.10
2023-05-21T02:54:09.766Z,18.13
2023-05-21T02:56:37.086Z,17.55
2023-05-21T02:59:04.413Z,20.08
2023-05-21T03:01:32.023Z,20.35
2023-05-21T03:03:59.382Z,20.83
2023-05-21T03:06:26.693Z,20.17
2023-05-21T03:08:54.117Z,21.42
2023-05-21T03:11:22.495Z,19.13
2023-05-21T03:13:50.004Z,19.45
2023-05-21T03:16:17.624Z,20.15
2023-05-21T03:18:45.145Z,20.58
2023-05-21T03:21:13.273Z,23.27
2023-05-21T03:23:41.888Z,21.73
2023-05-21T03:26:09.260Z,22.48
2023-05-21T03:28:36.517Z,19.30
2023-05-21T03:31:04.197Z,29.35
2023-05-21T03:33:46.106Z,19.77
2023-05-21T03:36:21.769Z,28.27
2023-05-21T03:38:49.168Z,21.10
2023-05-21T03:41:16.487Z,20.67
2023-05-21T03:43:47.441Z,24.13
2023-05-21T03:46:14.942Z,25.23
2023-05-21T03:49:05.991Z,25.85
2023-05-21T03:54:03.231Z,23.88
2023-05-21T03:56:31.290Z,20.13
2023-05-21T03:58:58.574Z,21.48
2023-05-21T04:01:28.345Z,24.65
2023-05-21T04:03:56.315Z,24.65
2023-05-21T04:06:25.534Z,22.85
2023-05-21T04:08:52.864Z,24.33
2023-05-21T04:11:20.214Z,24.50
2023-05-21T04:13:48.942Z,23.58
2023-05-21T04:16:19.277Z,22.00
2023-05-21T04:18:47.366Z,22.48
2023-05-21T04:21:16.377Z,21.67
2023-05-21T04:23:43.992Z,20.35
2023-05-21T04:26:23.810Z,19.50
2023-05-21T04:28:51.250Z,22.17
2023-05-21T04:31:18.667Z,19.88
2023-05-21T04:33:46.209Z,22.52
2023-05-21T04:36:13.737Z,24.00
2023-05-21T04:38:41.891Z,25.33
2023-05-21T04:41:10.807Z,26.98
2023-05-21T04:43:38.376Z,22.20
2023-05-21T04:46:06.071Z,21.00
2023-05-21T04:48:34.477Z,23.35
2023-05-21T04:51:01.964Z,19.83
2023-05-21T04:53:29.955Z,21.20
2023-05-21T04:55:59.454Z,25.60
2023-05-21T04:58:28.014Z,24.15
2023-05-21T05:00:56.034Z,20.52
2023-05-21T05:03:23.494Z,20.83
2023-05-21T05:05:51.607Z,21.23
2023-05-21T05:08:18.971Z,22.00
2023-05-21T05:10:46.451Z,23.17
2023-05-21T05:13:13.836Z,22.23
2023-05-21T05:15:41.461Z,23.42
2023-05-21T05:18:09.114Z,21.70
2023-05-21T05:20:36.481Z,20.13
2023-05-21T05:23:03.786Z,23.50
2023-05-21T05:25:31.203Z,24.33
2023-05-21T05:27:58.864Z,19.30
2023-05-21T05:30:26.282Z,25.92
2023-05-21T05:32:56.880Z,19.95
2023-05-21T05:35:24.730Z,18.77
2023-05-21T05:37:52.082Z,20.00
2023-05-21T05:40:19.417Z,23.92
2023-05-21T05:42:46.907Z,21.10
2023-05-21T05:45:16.272Z,20.80
2023-05-21T05:47:45.684Z,20.50
2023-05-21T05:50:13.069Z,27.23
2023-05-21T05:52:41.048Z,21.58
2023-05-21T05:55:09.053Z,20.85
2023-05-21T05:57:36.617Z,23.23
2023-05-21T06:00:12.847Z,19.60
2023-05-21T06:02:41.026Z,23.77
2023-05-21T06:05:10.059Z,25.85
2023-05-21T06:07:38.575Z,24.30
2023-05-21T06:10:06.998Z,25.35
2023-05-21T06:12:34.509Z,25.30
2023-05-21T06:15:01.914Z,21.25
2023-05-21T06:17:29.884Z,17.88
2023-05-21T06:19:57.561Z,23.42
2023-05-21T06:22:25.888Z,24.42
2023-05-21T06:24:53.584Z,24.27
2023-05-21T06:27:21.738Z,17.52
2023-05-21T06:29:50.044Z,24.52
2023-05-21T06:32:17.621Z,21.80
2023-05-21T06:34:45.017Z,23.50
2023-05-21T06:37:12.366Z,21.23
2023-05-21T06:39:39.654Z,24.58
2023-05-21T06:42:07.350Z,21.35
2023-05-21T06:44:54.825Z,22.35
2023-05-21T06:47:43.777Z,21.73
2023-05-21T06:50:11.288Z,22.48
2023-05-21T06:52:38.608Z,19.90
2023-05-21T06:55:08.178Z,18.40
2023-05-21T06:58:00.870Z,20.83
2023-05-21T07:00:28.189Z,22.40
2023-05-21T07:02:55.764Z,19.13
2023-05-21T07:05:23.122Z,20.83
2023-05-21T07:07:50.704Z,23.42
2023-05-21T07:10:18.051Z,24.02
2023-05-21T07:12:45.488Z,19.85
2023-05-21T07:15:12.846Z,21.15
2023-05-21T07:17:40.216Z,23.63
2023-05-21T07:20:09.927Z,19.67
2023-05-21T07:22:39.419Z,20.83
2023-05-21T07:25:09.151Z,21.48
2023-05-21T07:27:36.486Z,17.42
2023-05-21T07:30:04.996Z,19.98
2023-05-21T07:32:33.099Z,17.67
2023-05-21T07:35:03.957Z,21.52
2023-05-21T07:37:32.200Z,19.58
2023-05-21T07:40:00.005Z,21.30
2023-05-21T07:42:27.382Z,18.63
2023-05-21T07:44:56.784Z,19.50
2023-05-21T07:47:26.003Z,17.95
2023-05-21T07:49:53.459Z,19.40
2023-05-21T07:52:21.256Z,16.55
2023-05-21T07:54:48.662Z,16.70
2023-05-21T07:57:16.618Z,16.85
2023-05-21T07:59:59.871Z,17.60
2023-05-21T08:02:27.426Z,15.57
2023-05-21T08:04:55.283Z,16.77
2023-05-21T08:07:22.834Z,16.05
2023-05-21T08:09:50.202Z,16.67
2023-05-21T08:12:19.223Z,15.30
2023-05-21T08:14:46.446Z,15.50
2023-05-21T08:17:16.467Z,12.65
2023-05-21T08:19:44.627Z,11.75
2023-05-21T08:22:12.113Z,13.98
2023-05-21T08:24:42.773Z,15.18
2023-05-21T08:27:10.259Z,17.90
2023-05-21T08:29:38.116Z,14.18
2023-05-21T08:32:06.905Z,16.73
2023-05-21T08:34:34.276Z,16.38
2023-05-21T08:37:18.425Z,15.38
2023-05-21T08:40:00.907Z,12.80
2023-05-21T08:42:43.909Z,15.43
2023-05-21T08:45:22.365Z,14.60
2023-05-21T08:47:59.625Z,13.15
2023-05-21T08:50:31.540Z,11.35
2023-05-21T08:53:07.508Z,12.80
2023-05-21T08:55:43.901Z,12.35
2023-05-21T08:58:13.680Z,16.75
2023-05-21T09:00:41.178Z,13.88
2023-05-21T09:03:12.450Z,12.27
2023-05-21T09:05:42.332Z,12.18
2023-05-21T09:08:22.091Z,10.88
2023-05-21T09:11:08.619Z,13.00
2023-05-21T09:13:43.748Z,9.70
2023-05-21T09:16:17.554Z,12.32
2023-05-21T09:18:45.890Z,13.05
2023-05-21T09:21:24.490Z,12.93
2023-05-21T09:23:57.292Z,10.13
2023-05-21T09:26:25.730Z,9.90
2023-05-21T09:28:58.373Z,12.77
2023-05-21T09:31:26.906Z,11.52
2023-05-21T09:33:55.803Z,14.68
2023-05-21T09:36:24.484Z,12.00
2023-05-21T09:38:52.437Z,11.73
2023-05-21T09:41:22.118Z,14.27
2023-05-21T09:43:49.892Z,10.73
2023-05-21T09:46:21.864Z,12.50
2023-05-21T09:48:49.265Z,16.00
2023-05-21T09:51:20.466Z,11.45
2023-05-21T09:53:57.884Z,13.30
2023-05-21T09:56:26.857Z,15.38
2023-05-21T09:58:55.138Z,12.63
2023-05-21T10:01:23.979Z,13.75
2023-05-21T10:03:57.186Z,15.15
2023-05-21T10:06:27.101Z,16.40
2023-05-21T10:08:59.821Z,13.68
2023-05-21T10:11:28.027Z,14.82
2023-05-21T10:14:01.606Z,13.50
2023-05-21T10:16:29.832Z,13.85
2023-05-21T10:18:58.153Z,12.70
2023-05-21T10:21:26.595Z,18.02
2023-05-21T10:23:57.128Z,16.05
2023-05-21T10:26:25.160Z,21.33
2023-05-21T10:28:52.494Z,12.32
2023-05-21T10:31:20.161Z,12.63
2023-05-21T10:33:48.964Z,13.48
2023-05-21T10:36:20.262Z,13.02
2023-05-21T10:38:47.955Z,11.27
2023-05-21T10:41:16.271Z,12.63
2023-05-21T10:44:01.588Z,13.95
2023-05-21T10:46:38.024Z,13.38
2023-05-21T10:49:30.697Z,16.45
2023-05-21T10:52:25.951Z,12.82
2023-05-21T10:55:12.877Z,14.20
2023-05-21T10:57:59.744Z,14.60
2023-05-21T11:00:27.660Z,13.43
2023-05-21T11:02:55.983Z,12.02
2023-05-21T11:05:57.547Z,14.23
2023-05-21T11:08:25.920Z,10.80
2023-05-21T11:10:54.971Z,12.18
2023-05-21T11:13:25.046Z,11.50
2023-05-21T11:15:58.313Z,14.18
2023-05-21T11:18:46.176Z,11.15
2023-05-21T11:21:18.698Z,10.50
2023-05-21T11:23:52.463Z,12.10
2023-05-21T11:26:24.169Z,9.80
2023-05-21T11:29:03.397Z,11.57
2023-05-21T11:31:38.330Z,13.83
2023-05-21T11:34:15.145Z,10.80
2023-05-21T11:36:48.288Z,15.05
2023-05-21T11:39:24.039Z,14.95
2023-05-21T11:41:54.896Z,15.57
2023-05-21T11:44:39.452Z,12.77
2023-05-21T11:47:08.177Z,9.57
2023-05-21T11:49:36.640Z,10.57
2023-05-21T11:52:05.633Z,8.55
2023-05-21T11:54:37.605Z,10.73
2023-05-21T11:57:08.553Z,12.77
2023-05-21T11:59:37.131Z,12.48
2023-05-21T12:02:05.289Z,11.63
2023-05-21T12:04:32.983Z,10.48
2023-05-21T12:07:05.098Z,10.38
2023-05-21T12:09:39.047Z,10.40
2023-05-21T12:12:08.946Z,10.68
2023-05-21T12:14:37.363Z,10.93
2023-05-21T12:17:05.868Z,11.55
2023-05-21T12:19:37.663Z,11.40
2023-05-21T12:22:05.961Z,9.75
2023-05-21T12:24:34.621Z,9.25
2023-05-21T12:27:02.984Z,9.68
2023-05-21T12:29:31.830Z,8.02
2023-05-21T12:32:00.533Z,9.90
2023-05-21T12:34:46.786Z,13.95
2023-05-21T12:37:24.428Z,13.48
2023-05-21T12:39:53.068Z,10.98
2023-05-21T12:42:30.791Z,16.25
2023-05-21T12:44:58.480Z,11.07
2023-05-21T12:47:27.373Z,10.30
2023-05-21T12:49:58.090Z,14.57
2023-05-21T12:52:27.219Z,9.05
2023-05-21T12:54:56.584Z,10.82
2023-05-21T12:57:25.112Z,9.07
2023-05-21T12:59:56.880Z,14.35
2023-05-21T13:02:24.134Z,10.75
2023-05-21T13:04:58.259Z,9.30
2023-05-21T13:07:26.575Z,15.02
2023-05-21T13:09:54.589Z,11.25
2023-05-21T13:12:23.897Z,9.13
2023-05-21T13:14:51.688Z,9.00
2023-05-21T13:17:19.889Z,14.95
2023-05-21T13:20:18.402Z,9.00
2023-05-21T13:22:49.995Z,10.82
2023-05-21T13:25:20.989Z,9.55
2023-05-21T13:27:49.326Z,8.98
2023-05-21T13:30:17.423Z,9.43
2023-05-21T13:32:45.201Z,10.82
2023-05-21T13:35:13.127Z,9.27
2023-05-21T13:37:41.062Z,12.27
2023-05-21T13:40:15.522Z,9.52
2023-05-21T13:42:47.889Z,11.32
2023-05-21T13:45:17.291Z,11.50
2023-05-21T13:47:46.237Z,11.95
2023-05-21T13:50:14.048Z,11.75
2023-05-21T13:52:41.678Z,10.13
2023-05-21T13:55:10.534Z,8.40
2023-05-21T13:57:37.979Z,10.27
2023-05-21T14:00:06.065Z,9.20
2023-05-21T14:02:35.295Z,9.30
2023-05-21T14:05:02.736Z,10.80
2023-05-21T14:07:30.217Z,8.23
2023-05-21T14:09:58.211Z,10.95
2023-05-21T14:12:26.688Z,10.85
2023-05-21T14:14:53.950Z,10.55
2023-05-21T14:17:21.285Z,8.90
2023-05-21T14:19:48.704Z,9.38
2023-05-21T14:22:16.071Z,13.73
2023-05-21T14:24:43.404Z,8.27
2023-05-21T14:27:11.395Z,11.07
2023-05-21T14:29:39.555Z,9.27
2023-05-21T14:32:07.579Z,8.57
2023-05-21T14:34:35.039Z,11.93
2023-05-21T14:37:02.339Z,14.10
2023-05-21T14:39:29.750Z,10.25
2023-05-21T14:41:57.132Z,15.15
2023-05-21T14:44:24.446Z,9.07
2023-05-21T14:46:51.759Z,12.00
2023-05-21T14:49:19.150Z,8.35
2023-05-21T14:51:47.631Z,9.32
2023-05-21T14:54:14.975Z,12.27
2023-05-21T14:56:42.358Z,9.52
2023-05-21T14:59:11.475Z,9.40
2023-05-21T15:01:39.195Z,12.18
2023-05-21T15:04:08.042Z,9.40
2023-05-21T15:06:35.519Z,8.02
2023-05-21T15:09:02.999Z,10.13
2023-05-21T15:11:30.321Z,12.10
2023-05-21T15:13:57.837Z,11.45
2023-05-21T15:16:25.278Z,14.05
2023-05-21T15:18:53.483Z,10.65
2023-05-21T15:21:20.929Z,8.93
2023-05-21T15:23:48.315Z,7.90
2023-05-21T15:26:15.550Z,9.27
2023-05-21T15:28:43.428Z,8.45
2023-05-21T15:31:11.334Z,9.52
2023-05-21T15:33:38.588Z,13.05
2023-05-21T15:36:06.244Z,9.70
2023-05-21T15:38:33.594Z,13.48
2023-05-21T15:41:00.831Z,12.00
2023-05-21T15:43:28.049Z,8.85
2023-05-21T15:45:55.386Z,8.50
2023-05-21T15:48:23.124Z,9.05
2023-05-21T15:50:50.649Z,8.30
2023-05-21T15:53:17.925Z,11.43
2023-05-21T15:55:45.569Z,10.90
2023-05-21T15:58:12.994Z,9.85
2023-05-21T16:00:40.428Z,10.27
2023-05-21T16:03:08.114Z,9.70
2023-05-21T16:05:36.031Z,13.23
2023-05-21T16:08:03.672Z,11.68
2023-05-21T16:10:31.416Z,11.70
2023-05-21T16:12:59.095Z,16.25
2023-05-21T16:15:28.463Z,9.07
2023-05-21T16:17:55.970Z,9.00
2023-05-21T16:20:23.413Z,11.73
2023-05-21T16:22:51.161Z,13.18
2023-05-21T16:25:18.408Z,12.35
2023-05-21T16:27:45.739Z,17.73
2023-05-21T16:30:14.221Z,13.05
2023-05-21T16:32:41.835Z,9.13
2023-05-21T16:35:09.232Z,10.18
2023-05-21T16:37:36.597Z,12.57
2023-05-21T16:40:04.696Z,9.90
2023-05-21T16:42:32.048Z,13.13
2023-05-21T16:44:59.366Z,11.80
2023-05-21T16:47:26.727Z,12.73
2023-05-21T16:49:55.855Z,14.20
2023-05-21T16:52:23.823Z,12.82
2023-05-21T16:54:51.397Z,13.00
2023-05-21T16:57:18.685Z,13.73
2023-05-21T16:59:45.978Z,11.23
2023-05-21T17:02:13.863Z,14.43
2023-05-21T17:04:41.284Z,12.23
2023-05-21T17:07:08.631Z,9.75
2023-05-21T17:09:35.980Z,12.68
2023-05-21T17:12:03.802Z,13.55
2023-05-21T17:14:34.281Z,14.85
2023-05-21T17:17:01.977Z,12.77
2023-05-21T17:19:29.441Z,12.07
2023-05-21T17:21:56.986Z,14.25
2023-05-21T17:24:24.509Z,12.30
2023-05-21T17:26:53.032Z,11.60
2023-05-21T17:29:20.336Z,15.00
2023-05-21T17:31:47.937Z,15.27
2023-05-21T17:34:16.770Z,16.17
2023-05-21T17:36:44.178Z,16.30
2023-05-21T17:39:11.514Z,15.50
2023-05-21T17:41:38.794Z,12.70
2023-05-21T17:44:06.131Z,16.92
2023-05-21T17:46:33.605Z,17.17
2023-05-21T17:49:00.839Z,17.30
2023-05-21T17:51:28.325Z,15.93
2023-05-21T17:53:56.123Z,18.65
2023-05-21T17:56:23.522Z,18.38
2023-05-21T17:58:51.056Z,20.52
2023-05-21T18:01:19.150Z,21.27
2023-05-21T18:03:46.677Z,15.98
2023-05-21T18:06:13.993Z,15.18
2023-05-21T18:08:41.318Z,17.25
2023-05-21T18:11:08.815Z,15.90
2023-05-21T18:13:36.120Z,19.95
2023-05-21T18:16:03.465Z,19.20
2023-05-21T18:18:30.929Z,15.43
2023-05-21T18:20:58.497Z,17.70
2023-05-21T18:23:28.536Z,22.45
2023-05-21T18:28:23.473Z,17.90
2023-05-21T18:30:50.886Z,21.58
2023-05-21T18:33:18.290Z,20.67
2023-05-21T18:35:45.905Z,18.90
2023-05-21T18:38:13.508Z,21.80
2023-05-21T18:40:41.228Z,20.20
2023-05-21T18:43:10.839Z,18.25
2023-05-21T18:45:38.219Z,26.13
2023-05-21T18:48:05.882Z,19.42
2023-05-21T18:50:34.959Z,27.30
2023-05-21T18:53:02.768Z,22.23
2023-05-21T18:55:30.086Z,22.55
2023-05-21T18:57:57.392Z,22.38
2023-05-21T19:00:24.741Z,23.08
2023-05-21T19:02:52.187Z,22.42
2023-05-21T19:05:19.673Z,23.23
2023-05-21T19:07:47.428Z,24.85
2023-05-21T19:10:14.717Z,20.60
2023-05-21T19:12:43.412Z,21.67
2023-05-21T19:15:11.403Z,22.13
2023-05-21T19:17:39.924Z,22.40
2023-05-21T19:20:09.119Z,18.95
2023-05-21T19:22:37.231Z,19.77
2023-05-21T19:25:05.018Z,27.10
2023-05-21T19:27:32.434Z,19.23
2023-05-21T19:29:59.710Z,21.08
2023-05-21T19:32:27.171Z,19.90
2023-05-21T19:34:54.595Z,21.83
2023-05-21T19:37:22.302Z,20.58
2023-05-21T19:39:50.300Z,20.73
2023-05-21T19:42:18.516Z,23.33
2023-05-21T19:44:46.249Z,23.23
2023-05-21T19:47:13.810Z,21.35
2023-05-21T19:49:41.072Z,24.65
2023-05-21T19:52:08.743Z,21.55
2023-05-21T19:54:36.339Z,22.02
2023-05-21T19:57:03.820Z,22.45
2023-05-21T19:59:31.135Z,22.38
2023-05-21T20:01:58.686Z,24.08
2023-05-21T20:04:26.124Z,26.42
2023-05-21T20:06:53.517Z,29.35
2023-05-21T20:09:20.918Z,28.05
2023-05-21T20:11:48.715Z,27.13
2023-05-21T20:14:16.269Z,23.17
2023-05-21T20:16:47.211Z,27.52
2023-05-21T20:19:15.309Z,25.33
2023-05-21T20:21:42.939Z,21.52
2023-05-21T20:24:11.405Z,25.77
2023-05-21T20:26:39.798Z,27.13
2023-05-21T20:29:08.241Z,23.52
2023-05-21T20:31:36.047Z,27.52
2023-05-21T20:34:07.877Z,29.95
2023-05-21T20:36:36.429Z,24.40
2023-05-21T20:39:03.853Z,26.88
2023-05-21T20:41:37.380Z,23.88
2023-05-21T20:44:05.378Z,27.30
2023-05-21T20:46:33.102Z,25.15
2023-05-21T20:49:00.545Z,31.45
2023-05-21T20:51:27.831Z,25.67
2023-05-21T20:53:55.331Z,32.83
2023-05-21T20:56:40.016Z,27.10
2023-05-21T20:59:09.245Z,27.27
2023-05-21T21:01:39.243Z,24.73
2023-05-21T21:04:06.711Z,24.00
2023-05-21T21:06:34.895Z,27.20
2023-05-21T21:09:02.176Z,23.55
2023-05-21T21:11:29.436Z,24.80
2023-05-21T21:13:56.777Z,28.98
2023-05-21T21:16:24.142Z,21.02
2023-05-21T21:18:51.561Z,26.40
2023-05-21T21:21:19.462Z,28.92
2023-05-21T21:23:46.801Z,22.60
2023-05-21T21:26:14.112Z,21.52
2023-05-21T21:28:41.532Z,19.98
2023-05-21T21:31:08.878Z,27.67
2023-05-21T21:33:36.197Z,20.25
2023-05-21T21:36:03.694Z,20.95
2023-05-21T21:38:30.889Z,19.55
2023-05-21T21:40:58.131Z,22.10
2023-05-21T21:43:25.523Z,19.98
2023-05-21T21:45:52.821Z,21.52
2023-05-21T21:48:20.189Z,20.33
2023-05-21T21:50:47.562Z,24.02
2023-05-21T21:53:14.867Z,20.10
2023-05-21T21:55:42.238Z,20.00
2023-05-21T21:58:09.518Z,20.98
2023-05-21T22:00:37.431Z,23.30
2023-05-21T22:03:05.062Z,18.25
2023-05-21T22:05:32.680Z,20.33
2023-05-21T22:08:00.167Z,20.00
2023-05-21T22:10:27.533Z,22.27
2023-05-21T22:12:54.784Z,21.95
2023-05-21T22:15:28.705Z,18.27
2023-05-21T22:17:56.237Z,20.92
2023-05-21T22:20:23.600Z,22.05
2023-05-21T22:22:51.701Z,20.63
2023-05-21T22:25:19.821Z,20.65
2023-05-21T22:27:47.133Z,16.30
2023-05-21T22:30:14.486Z,17.33
2023-05-21T22:32:41.855Z,17.63
2023-05-21T22:35:09.668Z,20.30
2023-05-21T22:37:37.430Z,15.95
2023-05-21T22:40:08.614Z,14.73
2023-05-21T22:42:36.423Z,17.25
2023-05-21T22:45:04.314Z,18.45
2023-05-21T22:47:32.315Z,17.88
2023-05-21T22:50:00.845Z,15.82
2023-05-21T22:52:28.825Z,17.48
2023-05-21T22:54:57.837Z,24.23
2023-05-21T22:57:25.126Z,18.35
2023-05-21T22:59:52.516Z,19.27
2023-05-21T23:02:19.772Z,16.08
2023-05-21T23:04:48.361Z,18.05
2023-05-21T23:07:16.044Z,21.70
2023-05-21T23:09:43.475Z,18.25
2023-05-21T23:12:11.038Z,18.23
2023-05-21T23:14:38.368Z,23.35
2023-05-21T23:17:05.934Z,22.30
2023-05-21T23:19:33.565Z,18.17
2023-05-21T23:22:01.010Z,18.50
2023-05-21T23:24:29.564Z,17.95
2023-05-21T23:27:02.112Z,21.30
2023-05-21T23:29:30.397Z,17.92
2023-05-21T23:31:58.079Z,21.60
2023-05-21T23:34:25.751Z,17.17
2023-05-21T23:36:53.375Z,21.67
2023-05-21T23:39:21.172Z,17.80
2023-05-21T23:41:48.926Z,16.50
2023-05-21T23:44:16.381Z,22.80
2023-05-21T23:46:43.682Z,17.13
2023-05-21T23:49:11.591Z,19.05
2023-05-21T23:51:39.540Z,21.20
2023-05-21T23:54:08.000Z,19.27
2023-05-21T23:56:35.551Z,22.90
2023-05-21T23:59:02.884Z,25.30
